Weather History for KISQ - May, 2013

Change the Weather History Date:

Sunday, May 26, 2013

  Actual Average Record
Temperature  
Mean Temperature 48 °F -  
Max Temperature 60 °F 63 °F 79 °F (1986)
Min Temperature 35 °F 43 °F 22 °F (1969)
Degree Days  
Heating Degree Days 18    
Moisture  
Dew Point 32 °F    
Average Humidity 55    
Maximum Humidity 87    
Minimum Humidity 27    
Precipitation  
Precipitation 0.00 in - - ()
Sea Level Pressure  
Sea Level Pressure 30.32 in    
Wind  
Wind Speed 3 mph (SE)    
Max Wind Speed 9 mph    
Max Gust Speed -    
Visibility 10 miles    
Events      
Averages and records for this station are not official NWS values.
T = Trace of Precipitation, MM = Missing Value Source: NWS Daily Summary

Daily Weather History Graph

Daily Weather History Graph

Search for Another Location

Airport or City:

Trip Planner

Search our weather history database for the weather conditions in past years. The results will help you decide how hot, cold, wet, or windy it might be!

Date:

Astronomy

May. 26, 2013 Rise Set
Actual Time 6:01 AM EDT 9:22 PM EDT
Civil Twilight 5:24 AM EDT 9:59 PM EDT
Nautical Twilight 4:36 AM EDT 10:47 PM EDT
Astronomical Twilight 3:36 AM EDT 11:48 PM EDT
Moon 11:07 PM EDT (5/26) 7:30 AM EDT (5/26)
Length of Visible Light 16h 34m
Length of Day
15h 21m
Waning Gibbous, 97% of the Moon is Illuminated
May 26
Waning Gibbous
May 31
Last Quarter
Jun 8
New
Jun 16
First Quarter
Jun 23
Full

Hourly Weather History & Observations

Time (EDT) Temp. Windchill Dew Point Humidity Pressure Visibility Wind Dir Wind Speed Gust Speed Precip Events Conditions
12:14 AM 39.2 °F - 33.8 °F 81% 30.35 in 10.0 mi Calm Calm - N/A   Clear
12:35 AM 41.0 °F - 33.8 °F 76% 30.35 in 10.0 mi Calm Calm - N/A   Clear
12:55 AM 39.2 °F 37.0 °F 33.8 °F 81% 30.35 in 10.0 mi NE 3.5 mph - N/A   Clear
1:14 AM 39.2 °F 37.0 °F 32.0 °F 75% 30.34 in 10.0 mi NNE 3.5 mph - N/A   Clear
1:35 AM 39.2 °F 37.0 °F 32.0 °F 75% 30.35 in 10.0 mi NNE 3.5 mph - N/A   Clear
1:55 AM 39.2 °F - 30.2 °F 70% 30.35 in 10.0 mi Calm Calm - N/A   Clear
2:14 AM 39.2 °F 37.0 °F 30.2 °F 70% 30.35 in 10.0 mi North 3.5 mph - N/A   Clear
2:35 AM 41.0 °F - 30.2 °F 65% 30.35 in 10.0 mi Calm Calm - N/A   Clear
2:54 AM 35.6 °F 31.7 °F 30.2 °F 81% 30.35 in 10.0 mi North 4.6 mph - N/A   Clear
3:15 AM 37.4 °F 34.9 °F 30.2 °F 75% 30.34 in 10.0 mi North 3.5 mph - N/A   Clear
3:34 AM 39.2 °F - 32.0 °F 75% 30.34 in 10.0 mi Calm Calm - N/A   Clear
3:55 AM 35.6 °F 32.8 °F 30.2 °F 81% 30.34 in 10.0 mi North 3.5 mph - N/A   Clear
4:15 AM 37.4 °F 34.9 °F 32.0 °F 81% 30.34 in 10.0 mi NNE 3.5 mph - N/A   Clear
4:34 AM 35.6 °F 32.8 °F 30.2 °F 81% 30.34 in 10.0 mi North 3.5 mph - N/A   Clear
4:55 AM 35.6 °F - 32.0 °F 87% 30.34 in 10.0 mi Calm Calm - N/A   Clear
5:15 AM 35.6 °F - 30.2 °F 81% 30.34 in 10.0 mi Calm Calm - N/A   Clear
5:34 AM 35.6 °F - 30.2 °F 81% 30.34 in 10.0 mi Calm Calm - N/A   Clear
5:55 AM 37.4 °F - 32.0 °F 81% 30.36 in 10.0 mi Calm Calm - N/A   Clear
6:15 AM 37.4 °F - 32.0 °F 81% 30.36 in 10.0 mi Calm Calm - N/A   Clear
6:34 AM 35.6 °F 31.7 °F 30.2 °F 81% 30.36 in 10.0 mi NNE 4.6 mph - N/A   Clear
6:55 AM 37.4 °F 33.8 °F 33.8 °F 87% 30.36 in 10.0 mi North 4.6 mph - N/A   Clear
7:14 AM 39.2 °F 37.0 °F 35.6 °F 87% 30.36 in 10.0 mi NNE 3.5 mph - N/A   Clear
7:34 AM 44.6 °F 43.1 °F 35.6 °F 71% 30.36 in 10.0 mi NNE 3.5 mph - N/A   Clear
7:55 AM 46.4 °F 45.2 °F 35.6 °F 66% 30.36 in 10.0 mi NE 3.5 mph - N/A   Clear
8:14 AM 48.2 °F - 35.6 °F 62% 30.37 in 10.0 mi NE 3.5 mph - N/A   Clear
8:35 AM 50.0 °F - 35.6 °F 58% 30.38 in 10.0 mi Calm Calm - N/A   Clear
8:55 AM 53.6 °F - 35.6 °F 51% 30.39 in 10.0 mi SE 3.5 mph - N/A   Clear
9:14 AM 53.6 °F - 33.8 °F 47% 30.39 in 10.0 mi ESE 6.9 mph - N/A   Clear
9:35 AM 55.4 °F - 32.0 °F 41% 30.38 in 10.0 mi ESE 5.8 mph - N/A   Clear
9:54 AM 55.4 °F - 32.0 °F 41% 30.38 in 10.0 mi SE 6.9 mph - N/A   Clear
10:14 AM 55.4 °F - 30.2 °F 38% 30.37 in 10.0 mi ESE 6.9 mph - N/A   Clear
10:35 AM 57.2 °F - 30.2 °F 36% 30.37 in 10.0 mi ESE 5.8 mph - N/A   Clear
10:54 AM 57.2 °F - 30.2 °F 36% 30.37 in 10.0 mi SSE 6.9 mph - N/A   Clear
11:15 AM 57.2 °F - 30.2 °F 36% 30.37 in 10.0 mi SE 6.9 mph - N/A   Clear
11:35 AM 57.2 °F - 30.2 °F 36% 30.38 in 10.0 mi SSE 8.1 mph - N/A   Clear
11:54 AM 57.2 °F - 30.2 °F 36% 30.37 in 10.0 mi SE 6.9 mph - N/A   Clear
12:15 PM 59.0 °F - 32.0 °F 36% 30.37 in 10.0 mi SSE 5.8 mph - N/A   Clear
12:35 PM 60.8 °F - 30.2 °F 31% 30.36 in 10.0 mi SSE 6.9 mph - N/A   Scattered Clouds
12:54 PM 60.8 °F - 28.4 °F 29% 30.36 in 10.0 mi SSE 6.9 mph - N/A   Clear
1:15 PM 60.8 °F - 32.0 °F 34% 30.36 in 10.0 mi South 8.1 mph - N/A   Clear
1:34 PM 59.0 °F - 30.2 °F 34% 30.36 in 10.0 mi SSE 8.1 mph - N/A   Clear
1:54 PM 60.8 °F - 33.8 °F 36% 30.35 in 10.0 mi South 8.1 mph - N/A   Clear
2:15 PM 59.0 °F - 33.8 °F 39% 30.35 in 10.0 mi South 9.2 mph - N/A   Clear
2:34 PM 60.8 °F - 32.0 °F 34% 30.34 in 10.0 mi South 9.2 mph - N/A   Clear
2:55 PM 60.8 °F - 30.2 °F 31% 30.34 in 10.0 mi South 9.2 mph - N/A   Clear
3:15 PM 59.0 °F - 32.0 °F 36% 30.33 in 10.0 mi South 8.1 mph - N/A   Clear
3:34 PM 60.8 °F - 30.2 °F 31% 30.32 in 10.0 mi SSW 9.2 mph - N/A   Clear
3:55 PM 59.0 °F - 32.0 °F 36% 30.32 in 10.0 mi South 8.1 mph - N/A   Clear
4:15 PM 60.8 °F - 28.4 °F 29% 30.31 in 10.0 mi South 8.1 mph - N/A   Clear
4:34 PM 60.8 °F - 28.4 °F 29% 30.30 in 10.0 mi SSW 8.1 mph - N/A   Clear
4:55 PM 60.8 °F - 28.4 °F 29% 30.30 in 10.0 mi South 8.1 mph - N/A   Clear
5:14 PM 60.8 °F - 28.4 °F 29% 30.29 in 10.0 mi South 8.1 mph - N/A   Clear
5:34 PM 60.8 °F - 28.4 °F 29% 30.28 in 10.0 mi South 6.9 mph - N/A   Clear
5:55 PM 60.8 °F - 26.6 °F 27% 30.28 in 10.0 mi South 8.1 mph - N/A   Clear
6:14 PM 60.8 °F - 26.6 °F 27% 30.28 in 10.0 mi South 6.9 mph - N/A   Clear
6:35 PM 59.0 °F - 28.4 °F 31% 30.27 in 10.0 mi SSW 5.8 mph - N/A   Clear
6:55 PM 59.0 °F - 26.6 °F 29% 30.27 in 10.0 mi SSW 6.9 mph - N/A   Clear
7:14 PM 57.2 °F - 26.6 °F 31% 30.26 in 10.0 mi SSW 8.1 mph - N/A   Clear
7:35 PM 57.2 °F - 28.4 °F 33% 30.25 in 10.0 mi SSW 4.6 mph - N/A   Clear
7:55 PM 57.2 °F - 28.4 °F 33% 30.25 in 10.0 mi SSW 4.6 mph - N/A   Clear
8:14 PM 57.2 °F - 30.2 °F 36% 30.25 in 10.0 mi Calm Calm - N/A   Clear
8:35 PM 57.2 °F - 28.4 °F 33% 30.24 in 10.0 mi Calm Calm - N/A   Clear
8:54 PM 55.4 °F - 33.8 °F 44% 30.24 in 10.0 mi Calm Calm - N/A   Clear
9:14 PM 51.8 °F - 35.6 °F 54% 30.24 in 10.0 mi Calm Calm - N/A   Clear
9:35 PM 48.2 °F - 37.4 °F 66% 30.24 in 10.0 mi Calm Calm - N/A   Clear
9:54 PM 46.4 °F - 37.4 °F 71% 30.24 in 10.0 mi Calm Calm - N/A   Clear
10:15 PM 44.6 °F - 35.6 °F 71% 30.25 in 10.0 mi Calm Calm - N/A   Clear
10:35 PM 42.8 °F - 35.6 °F 76% 30.25 in 10.0 mi Calm Calm - N/A   Clear
10:54 PM 42.8 °F - 35.6 °F 76% 30.26 in 10.0 mi Calm Calm - N/A   Clear
11:15 PM 39.2 °F - 33.8 °F 81% 30.26 in 10.0 mi Calm Calm - N/A   Clear
11:34 PM 41.0 °F - 35.6 °F 81% 30.26 in 10.0 mi Calm Calm - N/A   Clear
11:54 PM 39.2 °F - 35.6 °F 87% 30.25 in 10.0 mi Calm Calm - N/A   Clear